ADDS METAR Data INFO
IDs: Format: Raw Decoded Include TAF

Data at: 2257 UTC 22 Jun 2018

KGBD 222240Z AUTO 07006KT 1 1/4SM -RA FEW085 BKN110 28/12 A2977 RMK AO2 P0000
KGBD 222216Z AUTO 04008G15KT 2SM -RA BKN090 28/13 A2980 RMK AO2 VIS 1 1/4V4 P0000
KGBD 222156Z AUTO 05009KT 5SM -RA BKN085 29/13 A2980 RMK AO2 RAB30 SLP075 P0000 T02890133
KGBD 222056Z AUTO 08006KT 10SM CLR 28/13 A2983 RMK AO2 RAB14E34 SLP084 P0000 60000 T02830133 58032
KGBD 221956Z AUTO VRB05KT 10SM CLR 27/13 A2986 RMK AO2 SLP096 T02720128
KGBD 221856Z AUTO 34004KT 10SM CLR 26/14 A2990 RMK AO2 SLP112 T02560139
KGBD 221756Z AUTO 32005KT 10SM CLR 24/14 A2993 RMK AO2 SLP120 T02390139 10239 20150 58014
KGBD 221656Z AUTO 00000KT 10SM CLR 22/14 A2996 RMK AO2 SLP131 T02170139
KGBD 221556Z AUTO 33006KT 10SM CLR 21/14 A2996 RMK AO2 SLP132 T02060139
KGBD 221530Z AUTO 01007KT 10SM SCT017 19/14 A2996 RMK AO2
KGBD 221456Z AUTO 34009KT 10SM OVC017 19/14 A2997 RMK AO2 SLP136 T01890144 53001
KGBD 221427Z AUTO 36010KT 10SM BKN015 18/14 A2997 RMK AO2
KGBD 221356Z AUTO 35008KT 10SM OVC011 17/14 A2997 RMK AO2 SLP135 T01720139
KGBD 221331Z AUTO 36011KT 10SM OVC011 17/14 A2996 RMK AO2 TSNO
KGBD 221256Z AUTO 35008KT 10SM OVC007 16/14 A2997 RMK AO2 SLP133 T01610144
KGBD 221254Z AUTO 35007KT 10SM OVC007 16/14 A2997 RMK AO2
KGBD 221156Z AUTO 01011KT 9SM OVC005 15/14 A2994 RMK AO2 SLP125 T01500139 10178 20139 53003
KGBD 221134Z AUTO 36011KT 8SM OVC005 14/14 A2995 RMK AO2 CIG 003V007
KGBD 221126Z AUTO 36009KT 10SM BKN007 14/14 A2995 RMK AO2 CIG 004V007
KGBD 221117Z AUTO 31005KT 10SM SCT007 14/13 A2995 RMK AO2
KGBD 221056Z AUTO 28005KT 10SM CLR 14/13 A2994 RMK AO2 SLP126 T01390128 TSNO
KGBD 220956Z AUTO 36007KT 10SM CLR 15/13 A2993 RMK AO2 SLP120 T01500133
KGBD 220856Z AUTO 36008KT 10SM CLR 16/14 A2993 RMK AO2 SLP121 T01560139 56010
KGBD 220756Z AUTO 36007KT 10SM CLR 16/14 A2993 RMK AO2 SLP121 T01610139
KGBD 220656Z AUTO 33005KT 10SM CLR 16/14 A2994 RMK AO2 SLP125 T01610144
KGBD 220556Z AUTO 36006KT 10SM CLR 18/14 A2996 RMK AO2 SLP131 T01780144 10283 20178 402940156 51012
KGBD 220456Z AUTO 32005KT 10SM CLR 19/14 A2996 RMK AO2 SLP130 T01890139
KGBD 220356Z AUTO 33004KT 9SM CLR 19/15 A2995 RMK AO2 SLP127 T01890150 TSNO
KGBD 220256Z AUTO 36006KT 10SM CLR 21/14 A2993 RMK AO2 SLP120 T02060144 53009
KGBD 220156Z AUTO 36009KT 10SM CLR 23/13 A2991 RMK AO2 SLP114 T02330133
KGBD 220056Z AUTO 34013KT 10SM CLR 27/12 A2990 RMK AO2 SLP110 T02670122
KGBD 212356Z AUTO 34016KT 10SM CLR 28/12 A2990 RMK AO2 SLP110 T02830117 10294 20261 56005
KGBD 212256Z AUTO 33016G21KT 10SM CLR 29/12 A2990 RMK AO2 SLP110 T02890122
KGBD 212156Z AUTO 30015G25KT 10SM CLR 29/11 A2991 RMK AO2 PK WND 34027/2130 SLP114 T02890111
KGBD 212056Z AUTO 33019G23KT 10SM CLR 28/12 A2992 RMK AO2 PK WND 33026/2013 SLP115 T02830122 56013
KGBD 211956Z AUTO 33021G26KT 10SM CLR 28/13 A2992 RMK AO2 PK WND 35029/1921 SLP118 T02830128
KGBD 211856Z AUTO 31019G24KT 10SM CLR 27/12 A2994 RMK AO2 PK WND 32028/1830 SLP124 T02720122
KGBD 211756Z AUTO 33020G27KT 10SM FEW060 26/13 A2996 RMK AO2 PK WND 33027/1755 SLP129 T02610133 10267 20161 56015
KGBD 211656Z AUTO 31017G25KT 10SM CLR 26/13 A2997 RMK AO2 PK WND 31026/1645 SLP134 T02560128
KGBD 211556Z AUTO 29017G24KT 10SM CLR 24/13 A2999 RMK AO2 PK WND 29026/1537 SLP139 T02440128
KGBD 211456Z AUTO 31014KT 10SM CLR 22/14 A3000 RMK AO2 SLP145 T02220139 58001
KGBD 211356Z AUTO 30013KT 10SM CLR 20/14 A3001 RMK AO2 SLP146 T02000139
KGBD 211311Z AUTO 29013G17KT 10SM FEW002 19/15 A3001 RMK AO2
KGBD 211256Z AUTO 29011KT 10SM CLR 18/14 A3001 RMK AO2 SLP147 T01780144
KGBD 211211Z AUTO 27008KT 10SM FEW002 16/14 A3001 RMK AO2
KGBD 211156Z AUTO 28008KT 10SM CLR 16/14 A3001 RMK AO2 SLP146 70001 T01610139 10183 20156 53003